createdAt,value
2022-10-05T00:02:57.186Z,8.03
2022-10-05T00:06:00.389Z,8.01
2022-10-05T00:09:13.132Z,8.02
2022-10-05T00:12:21.896Z,8.02
2022-10-05T00:15:24.309Z,7.99
2022-10-05T00:18:27.220Z,7.92
2022-10-05T00:21:29.776Z,7.86
2022-10-05T00:24:32.571Z,7.88
2022-10-05T00:27:37.959Z,7.91
2022-10-05T00:30:40.919Z,7.82
2022-10-05T00:33:43.668Z,7.72
2022-10-05T00:36:46.700Z,7.65
2022-10-05T00:39:49.651Z,7.61
2022-10-05T00:43:22.786Z,7.56
2022-10-05T00:46:29.037Z,7.54
2022-10-05T00:49:49.419Z,7.53
2022-10-05T00:53:06.162Z,7.41
2022-10-05T00:56:37.845Z,7.37
2022-10-05T00:59:46.340Z,7.37
2022-10-05T01:03:01.418Z,7.34
2022-10-05T01:06:24.591Z,7.34
2022-10-05T01:09:43.313Z,7.34
2022-10-05T01:12:52.178Z,7.31
2022-10-05T01:15:58.046Z,7.30
2022-10-05T01:19:34.248Z,7.31
2022-10-05T01:22:52.156Z,7.30
2022-10-05T01:26:09.644Z,7.32
2022-10-05T01:29:18.711Z,7.30
2022-10-05T01:32:30.020Z,7.23
2022-10-05T01:35:38.482Z,7.23
2022-10-05T01:38:58.202Z,7.24
2022-10-05T01:42:13.497Z,7.18
2022-10-05T01:45:40.772Z,7.18
2022-10-05T01:49:23.970Z,7.16
2022-10-05T01:52:43.964Z,7.10
2022-10-05T01:56:08.761Z,7.09
2022-10-05T01:59:43.715Z,7.08
2022-10-05T02:02:46.815Z,7.06
2022-10-05T02:06:06.387Z,7.07
2022-10-05T02:09:19.714Z,7.09
2022-10-05T02:12:27.582Z,7.07
2022-10-05T02:15:40.548Z,6.98
2022-10-05T02:18:58.900Z,6.91
2022-10-05T02:22:24.202Z,6.95
2022-10-05T02:25:33.233Z,6.92
2022-10-05T02:28:42.052Z,6.86
2022-10-05T02:32:06.772Z,6.83
2022-10-05T02:35:16.899Z,6.81
2022-10-05T02:38:28.800Z,6.77
2022-10-05T02:41:43.948Z,6.77
2022-10-05T02:45:21.839Z,6.78
2022-10-05T02:48:46.047Z,6.76
2022-10-05T02:52:21.880Z,6.83
2022-10-05T02:55:49.632Z,6.78
2022-10-05T02:59:31.328Z,6.78
2022-10-05T03:02:52.665Z,6.74
2022-10-05T03:06:01.526Z,6.76
2022-10-05T03:09:09.583Z,6.74
2022-10-05T03:12:21.161Z,6.74
2022-10-05T03:16:06.833Z,6.72
2022-10-05T03:19:19.208Z,6.67
2022-10-05T03:22:39.507Z,6.67
2022-10-05T03:26:13.679Z,6.59
2022-10-05T03:29:44.431Z,6.61
2022-10-05T03:33:05.244Z,6.57
2022-10-05T03:36:38.401Z,6.55
2022-10-05T03:39:57.538Z,6.54
2022-10-05T03:43:36.222Z,6.53
2022-10-05T03:47:31.175Z,6.47
2022-10-05T03:50:40.793Z,6.41
2022-10-05T03:53:53.134Z,6.37
2022-10-05T03:57:03.066Z,6.35
2022-10-05T04:00:28.160Z,6.45
2022-10-05T04:03:37.994Z,6.46
2022-10-05T04:06:52.381Z,6.39
2022-10-05T04:09:57.602Z,6.34
2022-10-05T04:13:11.187Z,6.34
2022-10-05T04:16:28.232Z,6.39
2022-10-05T04:19:44.302Z,6.45
2022-10-05T04:23:09.048Z,6.44
2022-10-05T04:26:19.493Z,6.42
2022-10-05T04:29:38.133Z,6.44
2022-10-05T04:32:47.769Z,6.44
2022-10-05T04:36:24.319Z,6.57
2022-10-05T04:39:34.383Z,6.42
2022-10-05T04:42:44.493Z,6.34
2022-10-05T04:45:58.677Z,6.33
2022-10-05T04:49:12.697Z,6.34
2022-10-05T04:52:32.864Z,6.33
2022-10-05T04:55:57.913Z,6.30
2022-10-05T04:59:22.980Z,6.26
2022-10-05T05:02:57.147Z,6.27
2022-10-05T05:06:18.249Z,6.36
2022-10-05T05:09:46.351Z,6.40
2022-10-05T05:13:01.206Z,6.47
2022-10-05T05:16:25.187Z,6.54
2022-10-05T05:19:58.305Z,6.58
2022-10-05T05:23:11.276Z,6.73
2022-10-05T05:26:45.518Z,6.82
2022-10-05T05:29:57.338Z,6.88
2022-10-05T05:33:18.121Z,7.15
2022-10-05T05:36:43.622Z,7.11
2022-10-05T05:40:10.235Z,7.11
2022-10-05T05:43:26.753Z,7.25
2022-10-05T05:47:02.251Z,7.40
2022-10-05T05:50:32.440Z,7.54
2022-10-05T05:53:35.399Z,7.71
2022-10-05T05:56:47.334Z,7.89
2022-10-05T06:00:06.135Z,8.09
2022-10-05T06:03:50.971Z,8.23
2022-10-05T06:06:58.018Z,8.43
2022-10-05T06:10:17.188Z,8.69
2022-10-05T06:13:29.018Z,8.83
2022-10-05T06:16:41.798Z,8.94
2022-10-05T06:19:47.342Z,8.96
2022-10-05T06:22:51.990Z,8.93
2022-10-05T06:26:11.624Z,8.88
2022-10-05T06:29:22.730Z,8.85
2022-10-05T06:32:33.372Z,8.92
2022-10-05T06:35:55.818Z,9.10
2022-10-05T06:39:17.986Z,9.20
2022-10-05T06:42:44.694Z,9.13
2022-10-05T06:46:11.890Z,9.27
2022-10-05T06:49:25.249Z,9.42
2022-10-05T06:52:40.461Z,9.54
2022-10-05T06:55:48.953Z,9.64
2022-10-05T06:58:58.483Z,9.77
2022-10-05T07:02:14.571Z,9.93
2022-10-05T07:05:35.813Z,9.95
2022-10-05T07:08:57.144Z,10.01
2022-10-05T07:12:43.812Z,10.21
2022-10-05T07:16:34.007Z,10.47
2022-10-05T07:20:01.359Z,10.42
2022-10-05T07:23:08.878Z,10.40
2022-10-05T07:26:28.861Z,10.66
2022-10-05T07:29:34.594Z,10.99
2022-10-05T07:33:13.681Z,11.15
2022-10-05T07:36:52.241Z,11.38
2022-10-05T07:40:08.733Z,11.51
2022-10-05T07:43:45.274Z,11.57
2022-10-05T07:46:58.617Z,11.84
2022-10-05T07:50:23.555Z,12.11
2022-10-05T07:53:58.869Z,12.21
2022-10-05T07:57:10.806Z,12.36
2022-10-05T08:00:21.112Z,12.50
2022-10-05T08:03:47.359Z,12.75
2022-10-05T08:06:54.144Z,12.77
2022-10-05T08:10:23.045Z,12.90
2022-10-05T08:13:31.539Z,13.17
2022-10-05T08:16:38.457Z,13.40
2022-10-05T08:19:48.944Z,13.47
2022-10-05T08:23:01.536Z,13.59
2022-10-05T08:26:34.905Z,13.83
2022-10-05T08:30:01.412Z,14.02
2022-10-05T08:33:14.809Z,14.41
2022-10-05T08:36:24.128Z,14.72
2022-10-05T08:39:36.194Z,14.84
2022-10-05T08:43:07.005Z,14.82
2022-10-05T08:46:32.001Z,14.87
2022-10-05T08:49:47.043Z,14.80
2022-10-05T08:53:07.685Z,14.66
2022-10-05T08:57:06.274Z,14.62
2022-10-05T09:00:13.166Z,14.43
2022-10-05T09:03:39.695Z,14.47
2022-10-05T09:06:53.998Z,14.82
2022-10-05T09:10:01.842Z,15.35
2022-10-05T09:13:22.950Z,15.62
2022-10-05T09:16:44.391Z,15.97
2022-10-05T09:19:58.501Z,16.32
2022-10-05T09:23:25.088Z,16.65
2022-10-05T09:27:04.524Z,16.80
2022-10-05T09:30:55.639Z,17.15
2022-10-05T09:34:13.177Z,17.49
2022-10-05T09:37:26.067Z,17.45
2022-10-05T09:40:56.897Z,17.80
2022-10-05T09:44:17.181Z,17.85
2022-10-05T09:47:45.191Z,18.23
2022-10-05T09:50:58.548Z,18.10
2022-10-05T09:54:32.943Z,17.69
2022-10-05T09:58:00.408Z,17.46
2022-10-05T10:01:36.391Z,17.03
2022-10-05T10:05:20.149Z,16.69
2022-10-05T10:08:44.181Z,16.89
2022-10-05T10:12:08.668Z,17.15
2022-10-05T10:15:36.790Z,17.43
2022-10-05T10:19:18.072Z,17.68
2022-10-05T10:22:57.661Z,17.85
2022-10-05T10:26:16.986Z,17.95
2022-10-05T10:29:45.886Z,17.99
2022-10-05T10:33:13.870Z,17.72
2022-10-05T10:36:27.741Z,17.45
2022-10-05T10:39:58.083Z,17.42
2022-10-05T10:43:32.753Z,17.48
2022-10-05T10:46:44.952Z,17.51
2022-10-05T10:50:15.801Z,17.68
2022-10-05T10:53:39.697Z,17.85
2022-10-05T10:56:47.945Z,18.22
2022-10-05T11:00:19.467Z,18.15
2022-10-05T11:03:50.264Z,17.95
2022-10-05T11:07:11.278Z,17.88
2022-10-05T11:10:22.798Z,17.72
2022-10-05T11:14:11.748Z,17.71
2022-10-05T11:17:29.363Z,17.92
2022-10-05T11:20:47.446Z,18.12
2022-10-05T11:24:18.241Z,18.30
2022-10-05T11:27:41.875Z,18.41
2022-10-05T11:31:03.081Z,18.51
2022-10-05T11:34:33.229Z,18.66
2022-10-05T11:38:07.878Z,18.58
2022-10-05T11:41:19.511Z,18.42
2022-10-05T11:44:59.446Z,18.46
2022-10-05T11:48:11.331Z,18.50
2022-10-05T11:51:29.159Z,18.63
2022-10-05T11:55:06.049Z,18.94
2022-10-05T11:58:26.149Z,18.93
2022-10-05T12:01:56.622Z,19.33
2022-10-05T12:05:22.018Z,19.42
2022-10-05T12:08:36.774Z,19.44
2022-10-05T12:12:00.674Z,19.29
2022-10-05T12:15:26.855Z,19.46
2022-10-05T12:18:32.724Z,19.56
2022-10-05T12:21:47.878Z,19.62
2022-10-05T12:25:02.956Z,19.50
2022-10-05T12:28:12.340Z,19.69
2022-10-05T12:31:35.565Z,19.67
2022-10-05T12:34:48.785Z,19.73
2022-10-05T12:38:17.001Z,19.57
2022-10-05T12:41:28.590Z,19.64
2022-10-05T12:44:43.257Z,19.58
2022-10-05T12:47:54.678Z,19.64
2022-10-05T12:51:08.181Z,19.56
2022-10-05T12:54:34.428Z,19.65
2022-10-05T12:57:37.190Z,19.77
2022-10-05T13:00:53.795Z,19.71
2022-10-05T13:04:02.985Z,19.44
2022-10-05T13:07:36.759Z,19.54
2022-10-05T13:10:49.404Z,19.44
2022-10-05T13:14:29.652Z,19.15
2022-10-05T13:17:47.729Z,19.03
2022-10-05T13:21:04.511Z,19.04
2022-10-05T13:24:17.360Z,19.27
2022-10-05T13:27:29.642Z,19.39
2022-10-05T13:30:33.637Z,19.65
2022-10-05T13:34:20.081Z,19.63
2022-10-05T13:37:32.547Z,19.85
2022-10-05T13:40:45.994Z,20.02
2022-10-05T13:44:18.151Z,19.47
2022-10-05T13:48:08.800Z,19.52
2022-10-05T13:51:17.802Z,19.50
2022-10-05T13:54:27.113Z,19.60
2022-10-05T13:57:47.100Z,19.54
2022-10-05T14:00:56.390Z,19.72
2022-10-05T14:04:24.667Z,19.61
2022-10-05T14:07:38.691Z,19.62
2022-10-05T14:10:43.675Z,19.60
2022-10-05T14:13:48.163Z,19.56
2022-10-05T14:16:56.474Z,19.53
2022-10-05T14:20:02.913Z,19.66
2022-10-05T14:23:24.447Z,19.59
2022-10-05T14:26:27.316Z,19.62
2022-10-05T14:29:38.249Z,19.59
2022-10-05T14:32:51.454Z,19.44
2022-10-05T14:35:56.360Z,19.51
2022-10-05T14:39:02.049Z,19.18
2022-10-05T14:42:19.204Z,19.12
2022-10-05T14:45:25.139Z,19.12
2022-10-05T14:48:40.747Z,18.89
2022-10-05T14:51:43.496Z,18.83
2022-10-05T14:55:24.683Z,18.77
2022-10-05T14:58:43.247Z,18.63
2022-10-05T15:01:55.442Z,18.48
2022-10-05T15:05:07.079Z,18.39
2022-10-05T15:08:36.032Z,18.20
2022-10-05T15:11:46.554Z,18.07
2022-10-05T15:15:01.426Z,18.06
2022-10-05T15:18:19.653Z,17.97
2022-10-05T15:21:39.444Z,17.75
2022-10-05T15:24:51.720Z,17.54
2022-10-05T15:28:22.553Z,17.36
2022-10-05T15:31:40.574Z,17.16
2022-10-05T15:34:49.963Z,17.14
2022-10-05T15:37:54.894Z,17.06
2022-10-05T15:41:10.054Z,16.93
2022-10-05T15:44:30.561Z,16.78
2022-10-05T15:47:51.781Z,16.65
2022-10-05T15:51:22.220Z,16.52
2022-10-05T15:54:49.776Z,16.39
2022-10-05T15:57:52.227Z,16.27
2022-10-05T16:01:09.109Z,16.15
2022-10-05T16:04:22.844Z,16.08
2022-10-05T16:07:52.311Z,15.98
2022-10-05T16:10:56.536Z,15.96
2022-10-05T16:14:12.656Z,15.82
2022-10-05T16:17:18.322Z,15.72
2022-10-05T16:20:41.122Z,15.63
2022-10-05T16:24:15.603Z,15.58
2022-10-05T16:27:21.187Z,15.63
2022-10-05T16:30:26.372Z,15.62
2022-10-05T16:33:58.403Z,15.47
2022-10-05T16:37:13.248Z,15.53
2022-10-05T16:40:33.944Z,15.33
2022-10-05T16:43:49.404Z,15.22
2022-10-05T16:46:59.440Z,15.08
2022-10-05T16:50:17.538Z,15.00
2022-10-05T16:53:30.544Z,15.00
2022-10-05T16:56:42.545Z,14.97
2022-10-05T17:00:03.962Z,14.94
2022-10-05T17:03:21.193Z,14.82
2022-10-05T17:06:37.064Z,14.71
2022-10-05T17:10:07.496Z,14.59
2022-10-05T17:13:37.365Z,14.53
2022-10-05T17:16:47.296Z,14.42
2022-10-05T17:20:19.283Z,14.35
2022-10-05T17:23:50.359Z,14.29
2022-10-05T17:27:15.972Z,14.21
2022-10-05T17:30:29.274Z,14.18
2022-10-05T17:33:33.454Z,14.11
2022-10-05T17:36:53.133Z,14.08
2022-10-05T17:39:57.101Z,14.03
2022-10-05T17:43:23.973Z,13.98
2022-10-05T17:46:47.533Z,13.88
2022-10-05T17:50:16.876Z,13.84
2022-10-05T17:53:41.270Z,13.80
2022-10-05T17:56:46.966Z,13.70
2022-10-05T17:59:52.336Z,13.58
2022-10-05T18:02:58.254Z,13.54
2022-10-05T18:06:25.651Z,13.48
2022-10-05T18:09:33.092Z,13.48
2022-10-05T18:12:45.388Z,13.47
2022-10-05T18:15:49.266Z,13.45
2022-10-05T18:18:57.308Z,13.38
2022-10-05T18:22:07.781Z,13.35
2022-10-05T18:25:20.144Z,13.32
2022-10-05T18:28:25.260Z,13.26
2022-10-05T18:31:42.196Z,13.19
2022-10-05T18:35:08.419Z,13.13
2022-10-05T18:38:38.525Z,13.07
2022-10-05T18:41:54.493Z,13.01
2022-10-05T18:45:16.988Z,12.93
2022-10-05T18:48:50.178Z,12.91
2022-10-05T18:52:08.913Z,12.93
2022-10-05T18:55:20.791Z,12.82
2022-10-05T18:58:33.357Z,12.85
2022-10-05T19:01:59.672Z,12.83
2022-10-05T19:05:29.343Z,12.78
2022-10-05T19:08:41.220Z,12.72
2022-10-05T19:11:55.707Z,12.74
2022-10-05T19:15:23.318Z,12.69
2022-10-05T19:18:44.443Z,12.61
2022-10-05T19:22:07.233Z,12.52
2022-10-05T19:25:24.974Z,12.47
2022-10-05T19:28:41.261Z,12.44
2022-10-05T19:31:53.141Z,12.39
2022-10-05T19:35:05.768Z,12.30
2022-10-05T19:38:27.409Z,12.22
2022-10-05T19:41:36.161Z,12.16
2022-10-05T19:45:10.306Z,12.09
2022-10-05T19:48:22.017Z,12.11
2022-10-05T19:51:29.471Z,12.04
2022-10-05T19:54:32.444Z,11.95
2022-10-05T19:57:35.249Z,11.91
2022-10-05T20:00:37.961Z,11.88
2022-10-05T20:03:41.049Z,11.84
2022-10-05T20:06:43.636Z,11.77
2022-10-05T20:09:58.520Z,11.75
2022-10-05T20:13:03.695Z,11.73
2022-10-05T20:16:35.650Z,11.72
2022-10-05T20:19:57.551Z,11.65
2022-10-05T20:23:22.518Z,11.59
2022-10-05T20:27:12.612Z,11.53
2022-10-05T20:30:28.653Z,11.53
2022-10-05T20:33:31.171Z,11.49
2022-10-05T20:36:33.930Z,11.44
2022-10-05T20:39:36.445Z,11.44
2022-10-05T20:42:39.290Z,11.42
2022-10-05T20:45:43.354Z,11.41
2022-10-05T20:48:46.041Z,11.40
2022-10-05T20:51:48.519Z,11.36
2022-10-05T20:54:54.136Z,11.34
2022-10-05T20:57:57.685Z,11.29
2022-10-05T21:01:15.382Z,11.28
2022-10-05T21:04:20.762Z,11.22
2022-10-05T21:07:25.686Z,11.19
2022-10-05T21:10:28.147Z,11.13
2022-10-05T21:13:30.837Z,11.10
2022-10-05T21:16:38.082Z,11.05
2022-10-05T21:19:40.952Z,11.00
2022-10-05T21:22:43.404Z,10.95
2022-10-05T21:25:46.110Z,10.88
2022-10-05T21:28:48.624Z,10.85
2022-10-05T21:31:51.536Z,10.80
2022-10-05T21:34:54.041Z,10.73
2022-10-05T21:37:56.751Z,10.67
2022-10-05T21:41:01.676Z,10.66
2022-10-05T21:44:06.250Z,10.72
2022-10-05T21:47:08.833Z,10.68
2022-10-05T21:50:11.704Z,10.61
2022-10-05T21:53:18.457Z,10.57
2022-10-05T21:56:24.256Z,10.54
2022-10-05T21:59:31.271Z,10.55
2022-10-05T22:02:34.361Z,10.55
2022-10-05T22:05:37.187Z,10.52
2022-10-05T22:08:40.176Z,10.45
2022-10-05T22:11:46.641Z,10.43
2022-10-05T22:14:49.671Z,10.42
2022-10-05T22:17:52.623Z,10.34
2022-10-05T22:20:55.128Z,10.34
2022-10-05T22:23:58.357Z,10.28
2022-10-05T22:27:00.880Z,10.27
2022-10-05T22:30:05.724Z,10.24
2022-10-05T22:33:08.614Z,10.25
2022-10-05T22:36:11.445Z,10.21
2022-10-05T22:39:14.960Z,10.20
2022-10-05T22:42:17.648Z,10.21
2022-10-05T22:45:20.215Z,10.17
2022-10-05T22:48:23.013Z,10.14
2022-10-05T22:51:25.529Z,10.16
2022-10-05T22:54:30.094Z,10.17
2022-10-05T22:57:38.899Z,10.18
2022-10-05T23:00:58.052Z,10.16
2022-10-05T23:04:01.716Z,10.15
2022-10-05T23:07:04.954Z,10.20
2022-10-05T23:10:10.187Z,10.20
2022-10-05T23:13:13.003Z,10.24
2022-10-05T23:16:17.850Z,10.25
2022-10-05T23:19:22.217Z,10.28
2022-10-05T23:22:25.362Z,10.30
2022-10-05T23:25:28.023Z,10.30
2022-10-05T23:28:30.948Z,10.29
2022-10-05T23:31:34.471Z,10.36
2022-10-05T23:34:36.927Z,10.34
2022-10-05T23:37:41.361Z,10.30
2022-10-05T23:40:46.524Z,10.29
2022-10-05T23:43:49.777Z,10.24
2022-10-05T23:46:52.281Z,10.25
2022-10-05T23:49:55.457Z,10.26
2022-10-05T23:52:58.544Z,10.28
2022-10-05T23:56:01.608Z,10.30
2022-10-05T23:59:04.195Z,10.37
